SBKG/CPV METAR and TAF weather

Enter ICAO airport designator
Station Type Date Time Source
SBKG METAR 2019/05/25 09:00 UTC NOAA

SBKG 250900Z 14003KT 9999 FEW014 BKN080 22/21 Q1015


Station Type Date Time Source
SBKG Decoded METAR 2019/05/25 09:00 UTC NOAA

Campina Grande, Brazil (SBKG) 07-13S 035-53W
May 25, 2019 - 05:00 AM EDT / 2019.05.25 0900 UTC
Wind: from the SE (140 degrees) at 3 MPH (3 KT):0
Visibility: greater than 7 mile(s):0
Sky conditions: mostly cloudy
Temperature: 71 F (22 C)
Dew Point: 69 F (21 C)
Relative Humidity: 94%
Pressure (altimeter): 29.97 in. Hg (1015 hPa)
ob: SBKG 250900Z 14003KT 9999 FEW014 BKN080 22/21 Q1015
cycle: 9

Station Type Date Time Source
SBKG TAF 2019/05/25 06:33 UTC NOAA

TAF SBKG 250400Z 2506/2518 16003KT 9999 BKN008 TN22/2508Z TX30/2517Z
BECMG 2508/2510 16008KT BKN030
RMK PFF

Example: see airport list